createdAt,value
2023-01-27T00:02:42.418Z,52.15
2023-01-27T00:08:10.117Z,55.13
2023-01-27T00:13:37.235Z,51.90
2023-01-27T00:19:05.329Z,51.22
2023-01-27T00:24:39.195Z,45.97
2023-01-27T00:35:34.873Z,41.83
2023-01-27T00:41:20.260Z,40.45
2023-01-27T00:46:47.277Z,41.20
2023-01-27T00:52:16.083Z,41.58
2023-01-27T00:57:43.350Z,40.25
2023-01-27T01:03:11.600Z,37.00
2023-01-27T01:08:39.962Z,38.05
2023-01-27T01:14:07.457Z,41.28
2023-01-27T01:19:35.302Z,43.08
2023-01-27T01:25:03.159Z,41.97
2023-01-27T01:30:31.103Z,38.67
2023-01-27T01:36:04.186Z,42.47
2023-01-27T01:41:31.410Z,42.85
2023-01-27T01:46:59.045Z,40.97
2023-01-27T01:52:26.732Z,41.85
2023-01-27T01:57:54.435Z,40.30
2023-01-27T02:03:26.331Z,42.50
2023-01-27T02:08:55.043Z,43.87
2023-01-27T02:14:22.502Z,43.33
2023-01-27T02:20:06.707Z,41.63
2023-01-27T02:25:34.748Z,42.58
2023-01-27T02:31:02.605Z,40.70
2023-01-27T02:36:35.000Z,42.85
2023-01-27T02:42:05.678Z,45.72
2023-01-27T02:47:34.672Z,43.33
2023-01-27T02:53:02.403Z,43.13
2023-01-27T02:58:29.602Z,43.25
2023-01-27T03:04:04.139Z,44.75
2023-01-27T03:09:31.762Z,44.88
2023-01-27T03:15:19.692Z,48.92
2023-01-27T03:20:49.533Z,45.55
2023-01-27T03:26:16.621Z,47.33
2023-01-27T03:31:47.428Z,39.88
2023-01-27T03:37:33.382Z,40.97
2023-01-27T03:43:20.673Z,38.15
2023-01-27T03:48:52.360Z,40.67
2023-01-27T03:54:19.976Z,41.33
2023-01-27T03:59:47.692Z,42.03
2023-01-27T04:05:33.319Z,39.80
2023-01-27T04:11:23.382Z,44.97
2023-01-27T04:16:52.996Z,44.13
2023-01-27T04:22:20.644Z,44.50
2023-01-27T04:27:47.622Z,44.03
2023-01-27T04:33:16.003Z,43.78
2023-01-27T04:38:43.661Z,47.85
2023-01-27T04:44:12.809Z,48.03
2023-01-27T04:49:39.672Z,43.30
2023-01-27T04:55:07.224Z,38.38
2023-01-27T05:00:45.195Z,24.75
2023-01-27T05:06:13.364Z,21.10
2023-01-27T05:11:40.865Z,21.95
2023-01-27T05:17:07.755Z,20.00
2023-01-27T05:22:34.775Z,22.40
2023-01-27T05:28:01.768Z,24.85
2023-01-27T05:33:28.926Z,25.33
2023-01-27T05:38:56.564Z,24.95
2023-01-27T05:44:24.029Z,24.52
2023-01-27T05:49:50.954Z,24.83
2023-01-27T05:55:17.980Z,24.40
2023-01-27T06:00:45.699Z,23.80
2023-01-27T06:06:14.292Z,25.58
2023-01-27T06:11:41.715Z,22.85
2023-01-27T06:17:09.165Z,20.67
2023-01-27T06:22:36.846Z,21.75
2023-01-27T06:28:04.187Z,20.80
2023-01-27T06:33:32.137Z,20.00
2023-01-27T06:38:59.068Z,22.60
2023-01-27T06:44:25.966Z,23.20
2023-01-27T06:49:53.100Z,21.73
2023-01-27T06:55:20.201Z,21.40
2023-01-27T07:00:48.424Z,19.38
2023-01-27T07:06:19.196Z,22.88
2023-01-27T07:11:46.541Z,18.33
2023-01-27T07:17:13.988Z,25.55
2023-01-27T07:22:41.056Z,24.83
2023-01-27T07:28:08.178Z,22.75
2023-01-27T07:33:35.145Z,22.48
2023-01-27T07:39:02.518Z,23.20
2023-01-27T07:44:30.487Z,22.98
2023-01-27T07:49:58.269Z,23.75
2023-01-27T07:55:25.406Z,25.17
2023-01-27T08:00:53.181Z,24.02
2023-01-27T08:06:20.542Z,26.30
2023-01-27T08:11:47.969Z,23.77
2023-01-27T08:17:15.077Z,20.02
2023-01-27T08:22:42.605Z,18.50
2023-01-27T08:28:10.198Z,19.25
2023-01-27T08:33:39.009Z,19.10
2023-01-27T08:39:06.366Z,15.70
2023-01-27T08:44:33.316Z,19.60
2023-01-27T08:50:00.641Z,21.10
2023-01-27T08:55:32.717Z,19.55
2023-01-27T09:01:02.796Z,18.33
2023-01-27T09:06:30.616Z,19.90
2023-01-27T09:11:58.596Z,57.63
2023-01-27T09:17:26.076Z,68.65
2023-01-27T09:22:55.792Z,64.97
2023-01-27T09:28:23.218Z,69.38
2023-01-27T09:33:50.609Z,73.32
2023-01-27T09:39:20.306Z,64.88
2023-01-27T09:45:16.576Z,63.90
2023-01-27T09:50:46.773Z,49.50
2023-01-27T09:56:30.097Z,56.10
2023-01-27T10:07:56.956Z,43.63
2023-01-27T10:13:49.034Z,52.20
2023-01-27T10:19:31.610Z,52.00
2023-01-27T10:25:08.968Z,48.72
2023-01-27T10:30:38.079Z,41.83
2023-01-27T10:36:19.336Z,47.13
2023-01-27T10:42:01.261Z,45.28
2023-01-27T10:48:04.775Z,40.58
2023-01-27T10:53:43.311Z,32.30
2023-01-27T10:59:11.051Z,36.38
2023-01-27T11:04:45.976Z,34.15
2023-01-27T11:10:20.537Z,38.88
2023-01-27T11:15:48.083Z,35.42
2023-01-27T11:21:21.217Z,33.90
2023-01-27T11:27:26.035Z,42.38
2023-01-27T11:33:37.364Z,30.30
2023-01-27T11:39:06.830Z,35.80
2023-01-27T11:44:35.464Z,37.92
2023-01-27T11:50:04.767Z,33.10
2023-01-27T11:55:38.616Z,37.33
2023-01-27T12:01:48.261Z,51.22
2023-01-27T12:07:41.013Z,50.33
2023-01-27T12:13:10.404Z,47.35
2023-01-27T12:18:51.469Z,42.35
2023-01-27T12:24:28.435Z,47.28
2023-01-27T12:30:00.617Z,45.60
2023-01-27T12:35:36.798Z,47.75
2023-01-27T12:41:09.959Z,40.70
2023-01-27T12:46:42.725Z,38.70
2023-01-27T12:52:18.778Z,37.95
2023-01-27T12:57:46.047Z,41.55
2023-01-27T13:03:13.107Z,43.75
2023-01-27T13:08:42.138Z,44.72
2023-01-27T13:14:19.204Z,39.80
2023-01-27T13:19:50.626Z,45.85
2023-01-27T13:25:23.796Z,41.65
2023-01-27T13:30:56.785Z,38.92
2023-01-27T13:36:52.696Z,45.58
2023-01-27T13:42:23.255Z,43.25
2023-01-27T13:48:01.716Z,45.03
2023-01-27T13:53:29.726Z,40.58
2023-01-27T13:59:22.337Z,44.13
2023-01-27T14:05:08.017Z,41.42
2023-01-27T14:11:08.889Z,42.17
2023-01-27T14:16:56.927Z,43.65
2023-01-27T14:22:58.376Z,44.63
2023-01-27T14:28:30.190Z,35.47
2023-01-27T14:34:24.827Z,42.88
2023-01-27T14:40:00.164Z,30.00
2023-01-27T14:45:27.786Z,37.17
2023-01-27T14:51:16.933Z,42.33
2023-01-27T14:57:19.296Z,38.03
2023-01-27T15:03:33.084Z,39.30
2023-01-27T15:09:19.391Z,37.78
2023-01-27T15:15:06.486Z,38.95
2023-01-27T15:21:10.256Z,37.20
2023-01-27T15:26:39.129Z,40.08
2023-01-27T15:32:17.014Z,41.33
2023-01-27T15:38:17.830Z,40.58
2023-01-27T15:44:23.227Z,37.55
2023-01-27T15:50:01.456Z,33.47
2023-01-27T15:55:35.206Z,32.20
2023-01-27T16:01:05.624Z,37.33
2023-01-27T16:06:34.607Z,33.78
2023-01-27T16:12:06.101Z,28.40
2023-01-27T16:17:36.727Z,33.90
2023-01-27T16:23:40.175Z,40.70
2023-01-27T16:29:46.935Z,37.57
2023-01-27T16:35:19.754Z,38.65
2023-01-27T16:40:53.797Z,32.58
2023-01-27T16:46:31.494Z,38.25
2023-01-27T16:52:02.465Z,33.90
2023-01-27T16:57:37.222Z,41.28
2023-01-27T17:03:11.704Z,39.92
2023-01-27T17:08:45.507Z,32.28
2023-01-27T17:14:28.607Z,36.10
2023-01-27T17:20:07.176Z,38.25
2023-01-27T17:25:39.078Z,37.63
2023-01-27T17:31:08.877Z,39.10
2023-01-27T17:36:36.408Z,37.08
2023-01-27T17:42:06.024Z,38.90
2023-01-27T17:47:34.356Z,38.65
2023-01-27T17:53:08.812Z,35.55
2023-01-27T17:58:36.038Z,37.50
2023-01-27T18:04:06.360Z,32.08
2023-01-27T18:09:35.828Z,34.92
2023-01-27T18:15:37.078Z,31.55
2023-01-27T18:21:06.320Z,34.67
2023-01-27T18:26:41.938Z,38.28
2023-01-27T18:32:17.753Z,37.70
2023-01-27T18:37:53.772Z,38.30
2023-01-27T18:43:20.822Z,38.80
2023-01-27T18:48:48.849Z,37.05
2023-01-27T18:54:15.704Z,33.80
2023-01-27T18:59:43.311Z,33.45
2023-01-27T19:05:20.889Z,34.58
2023-01-27T19:10:48.948Z,31.95
2023-01-27T19:16:18.248Z,37.00
2023-01-27T19:21:46.835Z,34.95
2023-01-27T19:27:16.527Z,32.30
2023-01-27T19:32:44.157Z,28.48
2023-01-27T19:38:12.864Z,35.53
2023-01-27T19:43:42.114Z,34.65
2023-01-27T19:49:18.416Z,34.30
2023-01-27T19:54:46.197Z,27.55
2023-01-27T20:00:35.607Z,32.50
2023-01-27T20:06:03.364Z,34.90
2023-01-27T20:11:33.798Z,36.08
2023-01-27T20:17:01.836Z,28.65
2023-01-27T20:22:29.488Z,30.52
2023-01-27T20:27:59.399Z,35.47
2023-01-27T20:33:27.677Z,27.73
2023-01-27T20:38:55.193Z,29.67
2023-01-27T20:44:22.786Z,34.28
2023-01-27T20:49:50.719Z,31.35
2023-01-27T20:55:22.739Z,32.92
2023-01-27T21:00:50.462Z,35.47
2023-01-27T21:06:21.943Z,29.60
2023-01-27T21:11:49.545Z,30.77
2023-01-27T21:17:17.625Z,35.95
2023-01-27T21:22:45.929Z,35.67
2023-01-27T21:28:13.487Z,34.45
2023-01-27T21:33:41.566Z,35.42
2023-01-27T21:39:09.323Z,28.52
2023-01-27T21:44:55.303Z,31.33
2023-01-27T21:50:22.635Z,26.08
2023-01-27T21:55:50.440Z,23.17
2023-01-27T22:01:20.022Z,27.02
2023-01-27T22:06:47.045Z,28.83
2023-01-27T22:12:16.384Z,30.45
2023-01-27T22:17:44.419Z,33.00
2023-01-27T22:23:11.717Z,30.45
2023-01-27T22:28:39.416Z,30.85
2023-01-27T22:34:07.871Z,27.23
2023-01-27T22:39:35.220Z,26.35
2023-01-27T22:45:02.776Z,27.73
2023-01-27T22:50:30.857Z,26.73
2023-01-27T22:56:03.243Z,26.65
2023-01-27T23:01:30.436Z,25.17
2023-01-27T23:06:57.370Z,27.17
2023-01-27T23:12:24.537Z,25.65
2023-01-27T23:17:51.835Z,27.52
2023-01-27T23:23:20.689Z,23.45
2023-01-27T23:28:47.541Z,29.75
2023-01-27T23:34:14.582Z,27.48
2023-01-27T23:39:45.987Z,25.35
2023-01-27T23:45:13.816Z,28.52
2023-01-27T23:50:41.836Z,28.35
2023-01-27T23:56:12.135Z,28.08
